sensor_id;sensor_type;location;lat;lon;timestamp;temperature;humidity
5723;DHT22;2886;49.722;8.612;2022-12-16T00:03:33;-3.00;99.90
5723;DHT22;2886;49.722;8.612;2022-12-16T00:05:59;-3.00;99.90
5723;DHT22;2886;49.722;8.612;2022-12-16T00:08:26;-3.10;99.90
5723;DHT22;2886;49.722;8.612;2022-12-16T00:10:56;-3.40;99.90
5723;DHT22;2886;49.722;8.612;2022-12-16T00:13:22;-3.60;99.90
5723;DHT22;2886;49.722;8.612;2022-12-16T00:15:47;-3.80;99.90
5723;DHT22;2886;49.722;8.612;2022-12-16T00:18:13;-3.80;99.90
5723;DHT22;2886;49.722;8.612;2022-12-16T00:20:46;-3.90;99.90
5723;DHT22;2886;49.722;8.612;2022-12-16T00:23:13;-4.00;99.90
5723;DHT22;2886;49.722;8.612;2022-12-16T00:25:41;-3.90;99.90
5723;DHT22;2886;49.722;8.612;2022-12-16T00:28:06;-3.90;99.90
5723;DHT22;2886;49.722;8.612;2022-12-16T00:30:32;-3.80;99.90
5723;DHT22;2886;49.722;8.612;2022-12-16T00:32:58;-3.80;99.90
5723;DHT22;2886;49.722;8.612;2022-12-16T00:35:23;-3.80;99.90
5723;DHT22;2886;49.722;8.612;2022-12-16T00:37:49;-3.80;99.90
5723;DHT22;2886;49.722;8.612;2022-12-16T00:40:14;-3.80;99.90
5723;DHT22;2886;49.722;8.612;2022-12-16T00:42:40;-3.80;99.90
5723;DHT22;2886;49.722;8.612;2022-12-16T00:45:06;-3.80;99.90
5723;DHT22;2886;49.722;8.612;2022-12-16T00:47:32;-3.80;99.90
5723;DHT22;2886;49.722;8.612;2022-12-16T00:49:57;-3.70;99.90
5723;DHT22;2886;49.722;8.612;2022-12-16T00:52:23;-3.70;99.90
5723;DHT22;2886;49.722;8.612;2022-12-16T00:54:49;-3.70;99.90
5723;DHT22;2886;49.722;8.612;2022-12-16T00:57:14;-3.60;99.90
5723;DHT22;2886;49.722;8.612;2022-12-16T00:59:40;-3.60;99.90
5723;DHT22;2886;49.722;8.612;2022-12-16T01:02:05;-3.60;99.90
5723;DHT22;2886;49.722;8.612;2022-12-16T01:04:31;-3.50;99.90
5723;DHT22;2886;49.722;8.612;2022-12-16T01:06:56;-3.50;99.90
5723;DHT22;2886;49.722;8.612;2022-12-16T01:09:22;-3.50;99.90
5723;DHT22;2886;49.722;8.612;2022-12-16T01:11:48;-3.50;99.90
5723;DHT22;2886;49.722;8.612;2022-12-16T01:14:13;-3.50;99.90
5723;DHT22;2886;49.722;8.612;2022-12-16T01:16:39;-3.50;99.90
5723;DHT22;2886;49.722;8.612;2022-12-16T01:19:04;-3.40;99.90
5723;DHT22;2886;49.722;8.612;2022-12-16T01:21:30;-3.40;99.90
5723;DHT22;2886;49.722;8.612;2022-12-16T01:23:56;-3.40;99.90
5723;DHT22;2886;49.722;8.612;2022-12-16T01:26:21;-3.40;99.90
5723;DHT22;2886;49.722;8.612;2022-12-16T01:28:47;-3.40;99.90
5723;DHT22;2886;49.722;8.612;2022-12-16T01:31:16;-3.50;99.90
5723;DHT22;2886;49.722;8.612;2022-12-16T01:33:42;-3.50;99.90
5723;DHT22;2886;49.722;8.612;2022-12-16T01:36:08;-3.60;99.90
5723;DHT22;2886;49.722;8.612;2022-12-16T01:38:35;-3.60;99.90
5723;DHT22;2886;49.722;8.612;2022-12-16T01:41:02;-3.60;99.90
5723;DHT22;2886;49.722;8.612;2022-12-16T01:43:31;-3.60;99.90
5723;DHT22;2886;49.722;8.612;2022-12-16T01:48:57;-3.40;99.90
5723;DHT22;2886;49.722;8.612;2022-12-16T01:51:34;-3.30;99.90
5723;DHT22;2886;49.722;8.612;2022-12-16T01:54:09;-3.30;99.90
5723;DHT22;2886;49.722;8.612;2022-12-16T01:56:39;-3.30;99.90
5723;DHT22;2886;49.722;8.612;2022-12-16T01:59:06;-3.30;99.90
5723;DHT22;2886;49.722;8.612;2022-12-16T02:01:33;-3.30;99.90
5723;DHT22;2886;49.722;8.612;2022-12-16T02:04:01;-3.30;99.90
5723;DHT22;2886;49.722;8.612;2022-12-16T02:06:28;-3.40;99.90
5723;DHT22;2886;49.722;8.612;2022-12-16T02:08:56;-3.40;99.90
5723;DHT22;2886;49.722;8.612;2022-12-16T02:28:00;-3.80;99.90
5723;DHT22;2886;49.722;8.612;2022-12-16T02:30:36;-3.80;99.90
5723;DHT22;2886;49.722;8.612;2022-12-16T02:35:55;-4.10;99.90
5723;DHT22;2886;49.722;8.612;2022-12-16T02:38:29;-4.20;99.90
5723;DHT22;2886;49.722;8.612;2022-12-16T02:41:02;-4.40;99.90
5723;DHT22;2886;49.722;8.612;2022-12-16T02:43:49;-4.50;99.90
5723;DHT22;2886;49.722;8.612;2022-12-16T02:46:18;-4.60;99.90
5723;DHT22;2886;49.722;8.612;2022-12-16T02:48:45;-4.60;99.90
5723;DHT22;2886;49.722;8.612;2022-12-16T02:51:10;-4.60;99.90
5723;DHT22;2886;49.722;8.612;2022-12-16T02:53:37;-4.60;99.90
5723;DHT22;2886;49.722;8.612;2022-12-16T02:59:02;-4.70;99.90
5723;DHT22;2886;49.722;8.612;2022-12-16T03:04:36;-4.80;99.90
5723;DHT22;2886;49.722;8.612;2022-12-16T03:07:03;-4.90;99.90
5723;DHT22;2886;49.722;8.612;2022-12-16T03:09:32;-4.90;99.90
5723;DHT22;2886;49.722;8.612;2022-12-16T03:12:02;-4.90;99.90
5723;DHT22;2886;49.722;8.612;2022-12-16T03:14:31;-4.90;99.90
5723;DHT22;2886;49.722;8.612;2022-12-16T03:16:58;-5.00;99.90
5723;DHT22;2886;49.722;8.612;2022-12-16T03:19:25;-5.00;99.90
5723;DHT22;2886;49.722;8.612;2022-12-16T03:22:13;-5.00;99.90
5723;DHT22;2886;49.722;8.612;2022-12-16T03:24:42;-5.10;99.90
5723;DHT22;2886;49.722;8.612;2022-12-16T03:27:12;-5.10;99.90
5723;DHT22;2886;49.722;8.612;2022-12-16T03:30:04;-5.20;99.90
5723;DHT22;2886;49.722;8.612;2022-12-16T03:32:35;-5.20;99.90
5723;DHT22;2886;49.722;8.612;2022-12-16T03:35:15;-5.20;99.90
5723;DHT22;2886;49.722;8.612;2022-12-16T03:37:43;-5.20;99.90
5723;DHT22;2886;49.722;8.612;2022-12-16T03:40:12;-5.20;99.90
5723;DHT22;2886;49.722;8.612;2022-12-16T03:42:38;-5.30;99.90
5723;DHT22;2886;49.722;8.612;2022-12-16T03:45:06;-5.30;99.90
5723;DHT22;2886;49.722;8.612;2022-12-16T03:47:33;-5.30;99.90
5723;DHT22;2886;49.722;8.612;2022-12-16T03:49:58;-5.30;99.90
5723;DHT22;2886;49.722;8.612;2022-12-16T03:52:24;-5.30;99.90
5723;DHT22;2886;49.722;8.612;2022-12-16T03:54:50;-5.30;99.90
5723;DHT22;2886;49.722;8.612;2022-12-16T03:57:15;-5.30;99.90
5723;DHT22;2886;49.722;8.612;2022-12-16T03:59:41;-5.30;99.90
5723;DHT22;2886;49.722;8.612;2022-12-16T04:02:07;-5.20;99.90
5723;DHT22;2886;49.722;8.612;2022-12-16T04:04:33;-5.20;99.90
5723;DHT22;2886;49.722;8.612;2022-12-16T04:06:58;-5.20;99.90
5723;DHT22;2886;49.722;8.612;2022-12-16T04:09:43;-5.30;99.90
5723;DHT22;2886;49.722;8.612;2022-12-16T04:12:09;-5.30;99.90
5723;DHT22;2886;49.722;8.612;2022-12-16T04:14:53;-5.20;99.90
5723;DHT22;2886;49.722;8.612;2022-12-16T04:17:37;-5.20;99.90
5723;DHT22;2886;49.722;8.612;2022-12-16T04:20:34;-5.20;99.90
5723;DHT22;2886;49.722;8.612;2022-12-16T04:23:19;-5.20;99.90
5723;DHT22;2886;49.722;8.612;2022-12-16T04:26:04;-5.20;99.90
5723;DHT22;2886;49.722;8.612;2022-12-16T04:28:30;-5.20;99.90
5723;DHT22;2886;49.722;8.612;2022-12-16T04:30:56;-5.20;99.90
5723;DHT22;2886;49.722;8.612;2022-12-16T04:33:22;-5.20;99.90
5723;DHT22;2886;49.722;8.612;2022-12-16T04:36:07;-5.20;99.90
5723;DHT22;2886;49.722;8.612;2022-12-16T04:38:51;-5.20;99.90
5723;DHT22;2886;49.722;8.612;2022-12-16T04:41:36;-5.20;99.90
5723;DHT22;2886;49.722;8.612;2022-12-16T04:44:20;-5.20;99.90
5723;DHT22;2886;49.722;8.612;2022-12-16T04:47:04;-5.20;99.90
5723;DHT22;2886;49.722;8.612;2022-12-16T04:49:48;-5.20;99.90
5723;DHT22;2886;49.722;8.612;2022-12-16T04:52:32;-5.30;99.90
5723;DHT22;2886;49.722;8.612;2022-12-16T04:55:16;-5.20;99.90
5723;DHT22;2886;49.722;8.612;2022-12-16T04:58:01;-5.20;99.90
5723;DHT22;2886;49.722;8.612;2022-12-16T05:00:47;-5.20;99.90
5723;DHT22;2886;49.722;8.612;2022-12-16T05:03:37;-5.10;99.90
5723;DHT22;2886;49.722;8.612;2022-12-16T05:06:21;-5.00;99.90
5723;DHT22;2886;49.722;8.612;2022-12-16T05:09:06;-5.00;99.90
5723;DHT22;2886;49.722;8.612;2022-12-16T05:11:50;-5.00;99.90
5723;DHT22;2886;49.722;8.612;2022-12-16T05:14:34;-5.00;99.90
5723;DHT22;2886;49.722;8.612;2022-12-16T05:17:19;-5.00;99.90
5723;DHT22;2886;49.722;8.612;2022-12-16T05:20:04;-5.10;99.90
5723;DHT22;2886;49.722;8.612;2022-12-16T05:22:30;-5.20;99.90
5723;DHT22;2886;49.722;8.612;2022-12-16T05:25:16;-5.30;99.90
5723;DHT22;2886;49.722;8.612;2022-12-16T05:28:00;-5.40;99.90
5723;DHT22;2886;49.722;8.612;2022-12-16T05:30:44;-5.40;99.90
5723;DHT22;2886;49.722;8.612;2022-12-16T05:33:28;-5.50;99.90
5723;DHT22;2886;49.722;8.612;2022-12-16T05:36:12;-5.50;99.90
5723;DHT22;2886;49.722;8.612;2022-12-16T05:38:56;-5.60;99.90
5723;DHT22;2886;49.722;8.612;2022-12-16T05:41:40;-5.60;99.90
5723;DHT22;2886;49.722;8.612;2022-12-16T05:44:24;-5.70;99.90
5723;DHT22;2886;49.722;8.612;2022-12-16T05:47:09;-5.70;99.90
5723;DHT22;2886;49.722;8.612;2022-12-16T05:49:53;-5.80;99.90
5723;DHT22;2886;49.722;8.612;2022-12-16T05:52:37;-5.80;99.90
5723;DHT22;2886;49.722;8.612;2022-12-16T05:55:21;-5.80;99.90
5723;DHT22;2886;49.722;8.612;2022-12-16T05:58:06;-5.80;99.90
5723;DHT22;2886;49.722;8.612;2022-12-16T06:00:50;-5.80;99.90
5723;DHT22;2886;49.722;8.612;2022-12-16T06:03:34;-5.80;99.90
5723;DHT22;2886;49.722;8.612;2022-12-16T06:06:19;-5.70;99.90
5723;DHT22;2886;49.722;8.612;2022-12-16T06:09:03;-5.70;99.90
5723;DHT22;2886;49.722;8.612;2022-12-16T06:11:50;-5.60;99.90
5723;DHT22;2886;49.722;8.612;2022-12-16T06:14:34;-5.50;99.90
5723;DHT22;2886;49.722;8.612;2022-12-16T06:17:20;-5.30;99.90
5723;DHT22;2886;49.722;8.612;2022-12-16T06:20:04;-5.40;99.90
5723;DHT22;2886;49.722;8.612;2022-12-16T06:22:30;-5.40;99.90
5723;DHT22;2886;49.722;8.612;2022-12-16T06:25:14;-5.40;99.90
5723;DHT22;2886;49.722;8.612;2022-12-16T06:27:58;-5.30;99.90
5723;DHT22;2886;49.722;8.612;2022-12-16T06:30:42;-5.30;99.90
5723;DHT22;2886;49.722;8.612;2022-12-16T06:33:26;-5.40;99.90
5723;DHT22;2886;49.722;8.612;2022-12-16T06:36:10;-5.40;99.90
5723;DHT22;2886;49.722;8.612;2022-12-16T06:38:54;-5.40;99.90
5723;DHT22;2886;49.722;8.612;2022-12-16T06:41:38;-5.50;99.90
5723;DHT22;2886;49.722;8.612;2022-12-16T06:44:23;-5.50;99.90
5723;DHT22;2886;49.722;8.612;2022-12-16T06:47:07;-5.50;99.90
5723;DHT22;2886;49.722;8.612;2022-12-16T06:49:51;-5.50;99.90
5723;DHT22;2886;49.722;8.612;2022-12-16T06:52:35;-5.50;99.90
5723;DHT22;2886;49.722;8.612;2022-12-16T06:55:20;-5.60;99.90
5723;DHT22;2886;49.722;8.612;2022-12-16T06:58:04;-5.70;99.90
5723;DHT22;2886;49.722;8.612;2022-12-16T07:00:48;-5.90;99.90
5723;DHT22;2886;49.722;8.612;2022-12-16T07:03:32;-6.00;99.90
5723;DHT22;2886;49.722;8.612;2022-12-16T07:06:16;-6.10;99.90
5723;DHT22;2886;49.722;8.612;2022-12-16T07:09:00;-6.10;99.90
5723;DHT22;2886;49.722;8.612;2022-12-16T07:11:44;-6.20;99.90
5723;DHT22;2886;49.722;8.612;2022-12-16T07:14:28;-6.30;99.90
5723;DHT22;2886;49.722;8.612;2022-12-16T07:17:13;-6.40;99.90
5723;DHT22;2886;49.722;8.612;2022-12-16T07:19:56;-6.40;99.90
5723;DHT22;2886;49.722;8.612;2022-12-16T07:22:31;-6.50;99.90
5723;DHT22;2886;49.722;8.612;2022-12-16T07:25:15;-6.50;99.90
5723;DHT22;2886;49.722;8.612;2022-12-16T07:27:59;-6.50;99.90
5723;DHT22;2886;49.722;8.612;2022-12-16T07:30:44;-6.50;99.90
5723;DHT22;2886;49.722;8.612;2022-12-16T07:33:28;-6.50;99.90
5723;DHT22;2886;49.722;8.612;2022-12-16T07:36:12;-6.50;99.90
5723;DHT22;2886;49.722;8.612;2022-12-16T07:38:56;-6.50;99.90
5723;DHT22;2886;49.722;8.612;2022-12-16T07:41:40;-6.60;99.90
5723;DHT22;2886;49.722;8.612;2022-12-16T07:44:24;-6.60;99.90
5723;DHT22;2886;49.722;8.612;2022-12-16T07:47:08;-6.60;99.90
5723;DHT22;2886;49.722;8.612;2022-12-16T07:49:52;-6.70;99.90
5723;DHT22;2886;49.722;8.612;2022-12-16T07:52:36;-6.60;99.90
5723;DHT22;2886;49.722;8.612;2022-12-16T07:55:22;-6.60;99.90
5723;DHT22;2886;49.722;8.612;2022-12-16T07:58:07;-6.60;99.90
5723;DHT22;2886;49.722;8.612;2022-12-16T08:00:51;-6.60;99.90
5723;DHT22;2886;49.722;8.612;2022-12-16T08:03:36;-6.50;99.90
5723;DHT22;2886;49.722;8.612;2022-12-16T08:06:20;-6.50;99.90
5723;DHT22;2886;49.722;8.612;2022-12-16T08:09:04;-6.50;99.90
5723;DHT22;2886;49.722;8.612;2022-12-16T08:11:48;-6.50;99.90
5723;DHT22;2886;49.722;8.612;2022-12-16T08:14:32;-6.50;99.90
5723;DHT22;2886;49.722;8.612;2022-12-16T08:17:16;-6.50;99.90
5723;DHT22;2886;49.722;8.612;2022-12-16T08:20:00;-6.40;99.90
5723;DHT22;2886;49.722;8.612;2022-12-16T08:22:30;-6.40;99.90
5723;DHT22;2886;49.722;8.612;2022-12-16T08:25:15;-6.30;99.90
5723;DHT22;2886;49.722;8.612;2022-12-16T08:27:59;-6.30;99.90
5723;DHT22;2886;49.722;8.612;2022-12-16T08:30:43;-6.30;99.90
5723;DHT22;2886;49.722;8.612;2022-12-16T08:33:27;-6.30;99.90
5723;DHT22;2886;49.722;8.612;2022-12-16T08:36:11;-6.20;99.90
5723;DHT22;2886;49.722;8.612;2022-12-16T08:38:59;-6.10;99.90
5723;DHT22;2886;49.722;8.612;2022-12-16T08:41:43;-6.10;99.90
5723;DHT22;2886;49.722;8.612;2022-12-16T08:44:28;-6.00;99.90
5723;DHT22;2886;49.722;8.612;2022-12-16T08:47:12;-5.90;99.90
5723;DHT22;2886;49.722;8.612;2022-12-16T08:49:56;-5.90;99.90
5723;DHT22;2886;49.722;8.612;2022-12-16T08:52:40;-5.70;99.90
5723;DHT22;2886;49.722;8.612;2022-12-16T08:55:24;-5.40;99.90
5723;DHT22;2886;49.722;8.612;2022-12-16T08:58:08;-5.10;99.90
5723;DHT22;2886;49.722;8.612;2022-12-16T09:00:52;-5.00;99.90
5723;DHT22;2886;49.722;8.612;2022-12-16T09:03:36;-4.90;99.90
5723;DHT22;2886;49.722;8.612;2022-12-16T09:06:22;-4.80;99.90
5723;DHT22;2886;49.722;8.612;2022-12-16T09:09:06;-4.70;99.90
5723;DHT22;2886;49.722;8.612;2022-12-16T09:11:50;-4.60;99.90
5723;DHT22;2886;49.722;8.612;2022-12-16T09:14:35;-4.50;99.90
5723;DHT22;2886;49.722;8.612;2022-12-16T09:17:19;-4.30;99.90
5723;DHT22;2886;49.722;8.612;2022-12-16T09:20:03;-4.20;99.90
5723;DHT22;2886;49.722;8.612;2022-12-16T09:22:30;-4.10;99.90
5723;DHT22;2886;49.722;8.612;2022-12-16T09:25:14;-4.00;99.90
5723;DHT22;2886;49.722;8.612;2022-12-16T09:27:58;-3.80;99.90
5723;DHT22;2886;49.722;8.612;2022-12-16T09:30:42;-3.60;99.90
5723;DHT22;2886;49.722;8.612;2022-12-16T09:33:26;-3.40;99.90
5723;DHT22;2886;49.722;8.612;2022-12-16T09:36:10;-3.10;99.90
5723;DHT22;2886;49.722;8.612;2022-12-16T09:38:54;-3.00;99.90
5723;DHT22;2886;49.722;8.612;2022-12-16T09:41:41;-2.80;99.90
5723;DHT22;2886;49.722;8.612;2022-12-16T09:50:24;-2.10;99.90
5723;DHT22;2886;49.722;8.612;2022-12-16T09:53:14;-1.70;99.90
5723;DHT22;2886;49.722;8.612;2022-12-16T09:56:00;-1.60;99.90
5723;DHT22;2886;49.722;8.612;2022-12-16T09:58:57;-1.30;99.90
5723;DHT22;2886;49.722;8.612;2022-12-16T10:01:42;-1.10;99.90
5723;DHT22;2886;49.722;8.612;2022-12-16T10:04:27;-1.00;99.90
5723;DHT22;2886;49.722;8.612;2022-12-16T10:07:17;-1.00;99.90
5723;DHT22;2886;49.722;8.612;2022-12-16T10:13:46;-0.70;99.90
5723;DHT22;2886;49.722;8.612;2022-12-16T10:22:43;-0.70;99.90
5723;DHT22;2886;49.722;8.612;2022-12-16T10:25:49;-0.80;99.90
5723;DHT22;2886;49.722;8.612;2022-12-16T10:28:53;-0.90;99.90
5723;DHT22;2886;49.722;8.612;2022-12-16T10:31:41;-0.80;99.90
5723;DHT22;2886;49.722;8.612;2022-12-16T10:34:30;-0.80;99.90
5723;DHT22;2886;49.722;8.612;2022-12-16T10:37:22;-0.70;99.90
5723;DHT22;2886;49.722;8.612;2022-12-16T10:40:13;-0.80;99.90
5723;DHT22;2886;49.722;8.612;2022-12-16T10:43:02;-0.70;99.90
5723;DHT22;2886;49.722;8.612;2022-12-16T10:45:50;-0.70;99.90
5723;DHT22;2886;49.722;8.612;2022-12-16T10:48:35;-0.80;99.90
5723;DHT22;2886;49.722;8.612;2022-12-16T10:51:21;-0.60;99.90
5723;DHT22;2886;49.722;8.612;2022-12-16T10:54:31;-0.60;99.90
5723;DHT22;2886;49.722;8.612;2022-12-16T11:03:27;-0.60;99.90
5723;DHT22;2886;49.722;8.612;2022-12-16T11:06:15;-0.60;99.90
5723;DHT22;2886;49.722;8.612;2022-12-16T11:09:15;-0.70;99.90
5723;DHT22;2886;49.722;8.612;2022-12-16T11:12:26;-0.60;99.90
5723;DHT22;2886;49.722;8.612;2022-12-16T11:15:31;-0.50;99.90
5723;DHT22;2886;49.722;8.612;2022-12-16T11:18:20;-0.60;99.90
5723;DHT22;2886;49.722;8.612;2022-12-16T11:21:18;-0.70;99.90
5723;DHT22;2886;49.722;8.612;2022-12-16T11:26:54;-0.50;99.90
5723;DHT22;2886;49.722;8.612;2022-12-16T11:33:01;-0.30;99.90
5723;DHT22;2886;49.722;8.612;2022-12-16T11:35:52;-0.30;99.90
5723;DHT22;2886;49.722;8.612;2022-12-16T11:38:42;-0.50;99.90
5723;DHT22;2886;49.722;8.612;2022-12-16T11:41:34;-0.50;99.90
5723;DHT22;2886;49.722;8.612;2022-12-16T11:44:23;-0.50;99.90
5723;DHT22;2886;49.722;8.612;2022-12-16T11:50:17;-0.60;99.90
5723;DHT22;2886;49.722;8.612;2022-12-16T11:53:04;-0.50;99.90
5723;DHT22;2886;49.722;8.612;2022-12-16T11:55:52;-0.60;99.90
5723;DHT22;2886;49.722;8.612;2022-12-16T11:58:50;-0.60;99.90
5723;DHT22;2886;49.722;8.612;2022-12-16T12:01:59;-0.60;99.90
5723;DHT22;2886;49.722;8.612;2022-12-16T12:04:48;-0.60;99.90
5723;DHT22;2886;49.722;8.612;2022-12-16T12:13:45;-0.70;99.90
5723;DHT22;2886;49.722;8.612;2022-12-16T12:19:49;-0.70;99.90
5723;DHT22;2886;49.722;8.612;2022-12-16T12:22:35;-0.60;99.90
5723;DHT22;2886;49.722;8.612;2022-12-16T12:28:26;-0.70;99.90
5723;DHT22;2886;49.722;8.612;2022-12-16T12:37:47;-0.60;99.90
5723;DHT22;2886;49.722;8.612;2022-12-16T12:46:56;-0.60;99.90
5723;DHT22;2886;49.722;8.612;2022-12-16T12:58:25;-0.50;99.90
5723;DHT22;2886;49.722;8.612;2022-12-16T13:01:11;-0.50;99.90
5723;DHT22;2886;49.722;8.612;2022-12-16T13:04:09;-0.50;99.90
5723;DHT22;2886;49.722;8.612;2022-12-16T13:06:56;-0.50;99.90
5723;DHT22;2886;49.722;8.612;2022-12-16T13:09:42;-0.50;99.90
5723;DHT22;2886;49.722;8.612;2022-12-16T13:12:31;-0.50;99.90
5723;DHT22;2886;49.722;8.612;2022-12-16T13:15:35;-0.40;99.90
5723;DHT22;2886;49.722;8.612;2022-12-16T13:18:27;-0.40;99.90
5723;DHT22;2886;49.722;8.612;2022-12-16T13:24:47;-0.40;99.90
5723;DHT22;2886;49.722;8.612;2022-12-16T13:27:47;-0.40;99.90
5723;DHT22;2886;49.722;8.612;2022-12-16T13:30:33;-0.40;99.90
5723;DHT22;2886;49.722;8.612;2022-12-16T13:33:21;-0.50;99.90
5723;DHT22;2886;49.722;8.612;2022-12-16T13:36:06;-0.40;99.90
5723;DHT22;2886;49.722;8.612;2022-12-16T13:38:54;-0.40;99.90
5723;DHT22;2886;49.722;8.612;2022-12-16T13:47:58;-0.40;99.90
5723;DHT22;2886;49.722;8.612;2022-12-16T13:50:42;-0.40;99.90
5723;DHT22;2886;49.722;8.612;2022-12-16T13:53:48;-0.40;99.90
5723;DHT22;2886;49.722;8.612;2022-12-16T13:56:41;-0.40;99.90
5723;DHT22;2886;49.722;8.612;2022-12-16T13:59:28;-0.40;99.90
5723;DHT22;2886;49.722;8.612;2022-12-16T14:05:18;-0.50;99.90
5723;DHT22;2886;49.722;8.612;2022-12-16T14:08:04;-0.50;99.90
5723;DHT22;2886;49.722;8.612;2022-12-16T14:10:56;-0.50;99.90
5723;DHT22;2886;49.722;8.612;2022-12-16T14:16:52;-0.40;99.90
5723;DHT22;2886;49.722;8.612;2022-12-16T14:25:30;-0.40;99.90
5723;DHT22;2886;49.722;8.612;2022-12-16T14:34:16;-0.40;99.90
5723;DHT22;2886;49.722;8.612;2022-12-16T14:37:10;-0.40;99.90
5723;DHT22;2886;49.722;8.612;2022-12-16T14:39:55;-0.40;99.90
5723;DHT22;2886;49.722;8.612;2022-12-16T14:42:39;-0.40;99.90
5723;DHT22;2886;49.722;8.612;2022-12-16T14:45:34;-0.40;99.90
5723;DHT22;2886;49.722;8.612;2022-12-16T14:57:00;-0.50;99.90
5723;DHT22;2886;49.722;8.612;2022-12-16T14:59:44;-0.60;99.90
5723;DHT22;2886;49.722;8.612;2022-12-16T15:02:39;-0.60;99.90
5723;DHT22;2886;49.722;8.612;2022-12-16T15:05:32;-0.60;99.90
5723;DHT22;2886;49.722;8.612;2022-12-16T15:08:17;-0.70;99.90
5723;DHT22;2886;49.722;8.612;2022-12-16T15:11:03;-0.70;99.90
5723;DHT22;2886;49.722;8.612;2022-12-16T15:13:51;-0.70;99.90
5723;DHT22;2886;49.722;8.612;2022-12-16T15:16:36;-0.70;99.90
5723;DHT22;2886;49.722;8.612;2022-12-16T15:19:21;-0.80;99.90
5723;DHT22;2886;49.722;8.612;2022-12-16T15:22:13;-0.80;99.90
5723;DHT22;2886;49.722;8.612;2022-12-16T15:24:57;-1.00;99.90
5723;DHT22;2886;49.722;8.612;2022-12-16T15:27:42;-1.10;99.90
5723;DHT22;2886;49.722;8.612;2022-12-16T15:30:42;-1.10;99.90
5723;DHT22;2886;49.722;8.612;2022-12-16T15:33:32;-1.10;99.90
5723;DHT22;2886;49.722;8.612;2022-12-16T15:39:00;-1.10;99.90
5723;DHT22;2886;49.722;8.612;2022-12-16T15:41:46;-1.20;99.90
5723;DHT22;2886;49.722;8.612;2022-12-16T15:44:30;-1.20;99.90
5723;DHT22;2886;49.722;8.612;2022-12-16T15:47:31;-1.30;99.90
5723;DHT22;2886;49.722;8.612;2022-12-16T15:50:19;-1.40;99.90
5723;DHT22;2886;49.722;8.612;2022-12-16T15:53:35;-1.50;99.90
5723;DHT22;2886;49.722;8.612;2022-12-16T15:56:23;-1.50;99.90
5723;DHT22;2886;49.722;8.612;2022-12-16T16:05:20;-1.80;99.90
5723;DHT22;2886;49.722;8.612;2022-12-16T16:08:05;-1.80;99.90
5723;DHT22;2886;49.722;8.612;2022-12-16T16:10:49;-1.90;99.90
5723;DHT22;2886;49.722;8.612;2022-12-16T16:13:34;-2.00;99.90
5723;DHT22;2886;49.722;8.612;2022-12-16T16:16:18;-2.20;99.90
5723;DHT22;2886;49.722;8.612;2022-12-16T16:19:04;-2.30;99.90
5723;DHT22;2886;49.722;8.612;2022-12-16T16:21:55;-2.40;99.90
5723;DHT22;2886;49.722;8.612;2022-12-16T16:24:53;-2.40;99.90
5723;DHT22;2886;49.722;8.612;2022-12-16T16:27:37;-2.40;99.90
5723;DHT22;2886;49.722;8.612;2022-12-16T16:30:21;-2.50;99.90
5723;DHT22;2886;49.722;8.612;2022-12-16T16:33:05;-2.60;99.90
5723;DHT22;2886;49.722;8.612;2022-12-16T16:35:50;-2.70;99.90
5723;DHT22;2886;49.722;8.612;2022-12-16T16:38:34;-2.70;99.90
5723;DHT22;2886;49.722;8.612;2022-12-16T16:41:18;-2.70;99.90
5723;DHT22;2886;49.722;8.612;2022-12-16T16:44:02;-2.70;99.90
5723;DHT22;2886;49.722;8.612;2022-12-16T16:46:46;-2.80;99.90
5723;DHT22;2886;49.722;8.612;2022-12-16T16:49:31;-2.80;99.90
5723;DHT22;2886;49.722;8.612;2022-12-16T16:52:18;-2.80;99.90
5723;DHT22;2886;49.722;8.612;2022-12-16T16:55:03;-2.70;99.90
5723;DHT22;2886;49.722;8.612;2022-12-16T16:57:48;-2.60;99.90
5723;DHT22;2886;49.722;8.612;2022-12-16T17:00:32;-2.50;99.90
5723;DHT22;2886;49.722;8.612;2022-12-16T17:03:16;-2.50;99.90
5723;DHT22;2886;49.722;8.612;2022-12-16T17:06:00;-2.50;99.90
5723;DHT22;2886;49.722;8.612;2022-12-16T17:08:44;-2.40;99.90
5723;DHT22;2886;49.722;8.612;2022-12-16T17:11:29;-2.40;99.90
5723;DHT22;2886;49.722;8.612;2022-12-16T17:14:15;-2.40;99.90
5723;DHT22;2886;49.722;8.612;2022-12-16T17:17:00;-2.40;99.90
5723;DHT22;2886;49.722;8.612;2022-12-16T17:19:45;-2.50;99.90
5723;DHT22;2886;49.722;8.612;2022-12-16T17:22:29;-2.70;99.90
5723;DHT22;2886;49.722;8.612;2022-12-16T17:25:13;-2.80;99.90
5723;DHT22;2886;49.722;8.612;2022-12-16T17:27:59;-3.00;99.90
5723;DHT22;2886;49.722;8.612;2022-12-16T17:30:43;-3.10;99.90
5723;DHT22;2886;49.722;8.612;2022-12-16T17:33:27;-3.20;99.90
5723;DHT22;2886;49.722;8.612;2022-12-16T17:36:13;-3.30;99.90
5723;DHT22;2886;49.722;8.612;2022-12-16T17:38:58;-3.40;99.90
5723;DHT22;2886;49.722;8.612;2022-12-16T17:41:42;-3.50;99.90
5723;DHT22;2886;49.722;8.612;2022-12-16T17:44:26;-3.50;99.90
5723;DHT22;2886;49.722;8.612;2022-12-16T17:47:11;-3.60;99.90
5723;DHT22;2886;49.722;8.612;2022-12-16T17:49:55;-3.60;99.90
5723;DHT22;2886;49.722;8.612;2022-12-16T17:52:39;-3.70;99.90
5723;DHT22;2886;49.722;8.612;2022-12-16T17:55:23;-3.70;99.90
5723;DHT22;2886;49.722;8.612;2022-12-16T17:58:07;-3.70;99.90
5723;DHT22;2886;49.722;8.612;2022-12-16T18:00:52;-3.80;99.90
5723;DHT22;2886;49.722;8.612;2022-12-16T18:03:36;-3.80;99.90
5723;DHT22;2886;49.722;8.612;2022-12-16T18:06:20;-3.90;99.90
5723;DHT22;2886;49.722;8.612;2022-12-16T18:09:04;-3.80;99.90
5723;DHT22;2886;49.722;8.612;2022-12-16T18:11:49;-3.90;99.90
5723;DHT22;2886;49.722;8.612;2022-12-16T18:14:33;-3.90;99.90
5723;DHT22;2886;49.722;8.612;2022-12-16T18:17:17;-4.00;99.90
5723;DHT22;2886;49.722;8.612;2022-12-16T18:20:02;-4.00;99.90
5723;DHT22;2886;49.722;8.612;2022-12-16T18:22:31;-4.00;99.90
5723;DHT22;2886;49.722;8.612;2022-12-16T18:25:15;-4.10;99.90
5723;DHT22;2886;49.722;8.612;2022-12-16T18:27:59;-4.00;99.90
5723;DHT22;2886;49.722;8.612;2022-12-16T18:30:43;-3.80;99.90
5723;DHT22;2886;49.722;8.612;2022-12-16T18:33:27;-3.60;99.90
5723;DHT22;2886;49.722;8.612;2022-12-16T18:36:14;-3.20;99.90
5723;DHT22;2886;49.722;8.612;2022-12-16T18:38:58;-3.00;99.90
5723;DHT22;2886;49.722;8.612;2022-12-16T18:41:43;-2.90;99.90
5723;DHT22;2886;49.722;8.612;2022-12-16T18:44:28;-2.70;99.90
5723;DHT22;2886;49.722;8.612;2022-12-16T18:47:12;-2.60;99.90
5723;DHT22;2886;49.722;8.612;2022-12-16T18:49:56;-2.50;99.90
5723;DHT22;2886;49.722;8.612;2022-12-16T18:52:40;-2.50;99.90
5723;DHT22;2886;49.722;8.612;2022-12-16T18:55:24;-2.50;99.90
5723;DHT22;2886;49.722;8.612;2022-12-16T18:58:09;-2.40;99.90
5723;DHT22;2886;49.722;8.612;2022-12-16T19:01:07;-2.40;99.90
5723;DHT22;2886;49.722;8.612;2022-12-16T19:03:52;-2.40;99.90
5723;DHT22;2886;49.722;8.612;2022-12-16T19:06:37;-2.50;99.90
5723;DHT22;2886;49.722;8.612;2022-12-16T19:09:21;-2.50;99.90
5723;DHT22;2886;49.722;8.612;2022-12-16T19:12:05;-2.60;99.90
5723;DHT22;2886;49.722;8.612;2022-12-16T19:14:50;-2.60;99.90
5723;DHT22;2886;49.722;8.612;2022-12-16T19:17:34;-2.80;99.90
5723;DHT22;2886;49.722;8.612;2022-12-16T19:20:19;-3.10;99.90
5723;DHT22;2886;49.722;8.612;2022-12-16T19:23:03;-3.20;99.90
5723;DHT22;2886;49.722;8.612;2022-12-16T19:26:01;-3.40;99.90
5723;DHT22;2886;49.722;8.612;2022-12-16T19:28:45;-3.60;99.90
5723;DHT22;2886;49.722;8.612;2022-12-16T19:31:29;-3.70;99.90
5723;DHT22;2886;49.722;8.612;2022-12-16T19:34:13;-3.80;99.90
5723;DHT22;2886;49.722;8.612;2022-12-16T19:36:58;-3.80;99.90
5723;DHT22;2886;49.722;8.612;2022-12-16T19:39:42;-3.90;99.90
5723;DHT22;2886;49.722;8.612;2022-12-16T19:42:26;-4.00;99.90
5723;DHT22;2886;49.722;8.612;2022-12-16T19:45:10;-4.20;99.90
5723;DHT22;2886;49.722;8.612;2022-12-16T19:48:02;-4.20;99.90
5723;DHT22;2886;49.722;8.612;2022-12-16T19:50:46;-4.30;99.90
5723;DHT22;2886;49.722;8.612;2022-12-16T19:53:30;-4.30;99.90
5723;DHT22;2886;49.722;8.612;2022-12-16T19:56:15;-4.40;99.90
5723;DHT22;2886;49.722;8.612;2022-12-16T19:58:59;-4.40;99.90